Saint Joseph, Michigan
Current Conditions -  °F | °C
As of 11:53 PM on Saturday 22 Nov 2014 (Local Time) from KBEH Reporting Station
Overcast Overcast  
Wind Chill: 51°   Ceiling: 2400
Heat Index: 51°   Visibility: 9mi
Dew Point: 46°   Wind: 8mph
Humidity: 83%   Direction: 200°SSW
Pressure: 29.88"   Gusts: NA
Location:  42.11°N, 86.48°W
Report Text: KBEH 230453Z AUTO 20007KT 9SM OVC024 11/08 A2988 RMK AO2 SLP122 T01060078 401111017
Loading
Personal Weather Stations






























Interactive Weather Map New forecast layout! Learn more

10-Day Weather Forecast

Advertisements
Track Severe Weather on mobile